Latest Weather Observations for Bridgetown

IDW60801

Issued at 2:03 pm WST Thursday 25 August 2016 (issued every 30 minutes, with the page automatically refreshed every 10 minutes)

About weather observations | Map of weather stations | Latest weather observations for WA | Other Formats
Station Details ID: 009617 Name: BRIDGETOWN Lat: -33.95 Lon: 116.13 Height: 178.66 m
Data from the previous 72 hours. | See also: Recent months at Bridgetown
Date/Time
WST
Temp
°C
App
Temp
°C
Dew
Point
°C
Rel
Hum
%
Delta-T
°C
Wind Press
QNH
hPa
Press
MSL
hPa
Rain since
9am
mm
Dir  Spd
km/h
Gust
km/h
Spd
kts
Gust
kts
25/02:00pm 15.8 13.8 8.5 62 3.7 NE 9 15 5 8 1021.0 1021.1 0.0
25/01:30pm 15.5 13.6 9.0 65 3.3 NNE 9 19 5 10 1021.6 1021.7 0.0
25/01:00pm 14.5 12.1 7.1 61 3.6 NNE 9 19 5 10 1022.3 1022.4 0.0
25/12:30pm 13.5 11.0 6.6 63 3.3 NE 9 22 5 12 1022.9 1023.1 0.0
25/12:00pm 13.2 10.3 6.5 64 3.2 NE 11 19 6 10 1023.7 1023.9 0.0
25/11:30am 12.6 9.4 6.9 68 2.8 ENE 13 22 7 12 1024.4 1024.6 0.0
25/11:00am 11.5 8.5 6.0 69 2.6 NNE 11 19 6 10 1025.2 1025.4 0.0
25/10:30am 10.9 7.6 6.3 73 2.2 NE 13 20 7 11 1025.6 1025.8 0.0
25/10:00am 9.6 5.8 6.0 78 1.7 NE 15 22 8 12 1025.7 1025.9 0.0
25/09:30am 9.6 6.7 6.3 80 1.5 NE 11 20 6 11 1025.9 1026.1 0.0
25/09:00am 8.4 6.2 6.2 86 1.0 NE 7 17 4 9 1026.0 1026.2 0.0
25/08:30am 6.0 5.0 5.7 98 0.1 CALM 0 4 0 2 1026.0 1026.2 0.0
25/08:00am 2.2 0.1 1.9 98 0.1 N 2 7 1 4 1026.1 1026.3 0.0
25/07:30am -0.2 -2.3 -0.6 97 0.1 CALM 0 0 0 0 1026.0 1026.2 0.0
25/07:00am -0.9 -3.1 -1.3 97 0.1 CALM 0 0 0 0 1025.7 1025.9 0.0
25/06:30am -1.2 -3.4 -1.6 97 0.1 CALM 0 0 0 0 1025.5 1025.7 0.0
25/06:00am -0.9 -3.1 -1.3 97 0.1 CALM 0 0 0 0 1025.4 1025.6 0.0
25/05:30am -0.5 -2.6 -0.9 97 0.1 CALM 0 0 0 0 1025.3 1025.5 0.0
25/05:00am -0.6 -2.7 -1.0 97 0.1 CALM 0 0 0 0 1025.2 1025.4 0.0
25/04:30am -0.5 -2.6 -0.9 97 0.1 CALM 0 0 0 0 1024.9 1025.1 0.0
25/04:00am -0.2 -2.3 -0.6 97 0.1 CALM 0 2 0 1 1025.1 1025.3 0.0
25/03:30am 0.0 -2.0 -0.4 97 0.1 CALM 0 0 0 0 1025.3 1025.5 0.0
25/03:00am 0.2 -1.8 -0.2 97 0.1 CALM 0 0 0 0 1025.2 1025.4 0.0
25/02:30am 0.5 -1.5 0.1 97 0.1 CALM 0 0 0 0 1025.4 1025.6 0.0
25/02:00am 0.6 -1.4 0.2 97 0.1 CALM 0 0 0 0 1025.7 1025.9 0.0
25/01:30am 0.8 -1.2 0.2 96 0.2 CALM 0 0 0 0 1026.0 1026.2 0.0
25/01:00am 1.0 -0.9 0.4 96 0.2 CALM 0 0 0 0 1026.0 1026.2 0.0
25/12:30am 1.3 -0.6 0.7 96 0.2 CALM 0 0 0 0 1026.1 1026.3 0.0
25/12:00am 1.7 -0.1 1.1 96 0.2 CALM 0 0 0 0 1026.3 1026.5 0.0
 
Date/Time
WST
Temp
°C
App
Temp
°C
Dew
Point
°C
Rel
Hum
%
Delta-T
°C
Wind Press
QNH
hPa
Press
MSL
hPa
Rain since
9am
mm
Dir  Spd
km/h
Gust
km/h
Spd
kts
Gust
kts
24/11:30pm 1.9 0.1 1.3 96 0.2 CALM 0 0 0 0 1026.4 1026.6 0.0
24/11:00pm 2.3 0.6 1.6 95 0.3 CALM 0 0 0 0 1026.3 1026.5 0.0
24/10:30pm 2.5 0.8 1.8 95 0.3 CALM 0 0 0 0 1026.6 1026.7 0.0
24/10:00pm 2.8 1.1 1.9 94 0.4 CALM 0 0 0 0 1026.7 1026.8 0.0
24/09:30pm 3.6 2.0 2.7 94 0.4 CALM 0 0 0 0 1026.8 1026.9 0.0
24/09:00pm 3.9 2.4 2.9 93 0.4 CALM 0 0 0 0 1026.8 1026.9 0.0
24/08:30pm 4.7 3.3 3.5 92 0.5 CALM 0 0 0 0 1026.7 1026.8 0.0
24/08:00pm 5.3 4.0 4.0 91 0.6 CALM 0 0 0 0 1026.6 1026.7 0.0
24/07:30pm 6.0 4.7 4.2 88 0.8 CALM 0 0 0 0 1026.4 1026.6 0.0
24/07:00pm 7.5 6.3 4.8 83 1.2 CALM 0 0 0 0 1026.1 1026.3 0.0
24/06:30pm 9.3 8.0 4.3 71 2.2 CALM 0 0 0 0 1025.8 1026.0 0.0
24/06:00pm 11.3 9.3 4.3 62 3.2 ENE 4 6 2 3 1025.6 1025.8 0.0
24/05:30pm 12.8 10.2 4.3 56 3.9 ENE 7 13 4 7 1025.4 1025.6 0.0
24/05:00pm 13.6 11.1 4.7 55 4.1 E 7 15 4 8 1025.1 1025.3 0.0
24/04:30pm 13.9 11.0 4.8 54 4.3 E 9 15 5 8 1024.9 1025.1 0.0
24/04:00pm 14.3 11.5 5.1 54 4.3 E 9 17 5 9 1024.9 1025.1 0.0
24/03:30pm 14.2 10.9 4.8 53 4.4 NE 11 17 6 9 1025.0 1025.2 0.0
24/03:00pm 14.3 11.8 4.9 53 4.4 E 7 13 4 7 1025.0 1025.2 0.0
24/02:30pm 14.3 12.0 5.7 56 4.1 E 7 15 4 8 1025.2 1025.4 0.0
24/02:00pm 13.7 11.4 4.6 54 4.2 NE 6 11 3 6 1025.4 1025.6 0.0
24/01:30pm 13.7 11.5 3.5 50 4.6 ESE 4 9 2 5 1025.5 1025.7 0.0
24/01:00pm 13.4 10.1 4.6 55 4.1 ENE 11 20 6 11 1025.8 1026.0 0.0
24/12:30pm 12.8 9.8 4.3 56 3.9 ESE 9 17 5 9 1025.9 1026.1 0.0
24/12:00pm 12.5 9.6 4.5 58 3.7 E 9 15 5 8 1026.7 1026.8 0.0
24/11:30am 12.0 8.9 3.5 56 3.8 ENE 9 13 5 7 1027.1 1027.2 0.0
24/11:00am 11.2 7.4 3.7 60 3.3 E 13 20 7 11 1027.3 1027.4 0.0
24/10:30am 11.0 8.0 4.0 62 3.1 ESE 9 17 5 9 1027.5 1027.6 0.0
24/10:00am 9.1 6.7 5.1 76 1.8 SSE 7 13 4 7 1027.5 1027.6 0.0
24/09:30am 6.0 3.9 3.8 86 0.9 S 4 6 2 3 1027.6 1027.8 0.0
24/09:00am 4.0 2.1 2.7 91 0.5 SE 2 4 1 2 1027.7 1027.9 0.0
24/08:30am 2.3 0.6 1.6 95 0.3 CALM 0 0 0 0 1027.6 1027.8 0.0
24/08:00am 0.3 -1.7 -0.1 97 0.1 CALM 0 0 0 0 1027.4 1027.5 0.0
24/07:30am -1.3 -3.5 -1.9 96 0.1 CALM 0 0 0 0 1027.1 1027.2 0.0
24/07:00am -2.4 -4.8 -2.9 96 0.1 CALM 0 0 0 0 1027.0 1027.1 0.0
24/06:30am -2.4 -4.8 -2.9 96 0.1 CALM 0 0 0 0 1026.8 1026.9 0.0
24/06:00am -2.0 -4.3 -2.6 96 0.1 CALM 0 0 0 0 1026.8 1026.9 0.0
24/05:30am -2.1 -4.4 -2.6 96 0.1 CALM 0 0 0 0 1026.7 1026.8 0.0
24/05:00am -1.9 -4.2 -2.5 96 0.1 CALM 0 0 0 0 1026.3 1026.5 0.0
24/04:30am -1.4 -3.7 -2.0 96 0.1 CALM 0 0 0 0 1026.3 1026.5 0.0
24/04:00am -1.4 -3.7 -2.0 96 0.1 CALM 0 0 0 0 1026.1 1026.3 0.0
24/03:30am -1.3 -3.5 -1.9 96 0.1 CALM 0 0 0 0 1026.1 1026.3 0.0
24/03:00am -1.1 -3.3 -1.7 96 0.2 CALM 0 0 0 0 1026.1 1026.3 0.0
24/02:30am -1.1 -3.3 -1.7 96 0.2 CALM 0 0 0 0 1026.0 1026.2 0.0
24/02:00am -0.9 -3.1 -1.6 95 0.2 CALM 0 0 0 0 1026.0 1026.2 0.0
24/01:30am -0.5 -2.6 -1.1 96 0.2 CALM 0 0 0 0 1026.3 1026.5 0.0
24/01:00am -0.3 -2.4 -1.0 95 0.2 CALM 0 0 0 0 1026.4 1026.6 0.0
24/12:30am 0.0 -2.1 -0.7 95 0.3 CALM 0 0 0 0 1026.0 1026.2 0.0
24/12:00am 0.3 -1.7 -0.4 95 0.2 CALM 0 0 0 0 1025.7 1025.9 0.0
 
Date/Time
WST
Temp
°C
App
Temp
°C
Dew
Point
°C
Rel
Hum
%
Delta-T
°C
Wind Press
QNH
hPa
Press
MSL
hPa
Rain since
9am
mm
Dir  Spd
km/h
Gust
km/h
Spd
kts
Gust
kts
23/11:30pm 0.7 -1.3 0.0 95 0.3 CALM 0 0 0 0 1025.8 1026.0 0.0
23/11:00pm 1.1 -0.8 0.4 95 0.3 CALM 0 0 0 0 1025.9 1026.1 0.0
23/10:30pm 1.7 -0.1 1.0 95 0.3 CALM 0 0 0 0 1025.8 1026.0 0.0
23/10:00pm 1.9 0.1 1.0 94 0.3 CALM 0 0 0 0 1026.0 1026.2 0.0
23/09:30pm 2.2 0.4 1.2 93 0.4 CALM 0 0 0 0 1025.9 1026.1 0.0
23/09:00pm 2.9 1.2 1.7 92 0.5 CALM 0 0 0 0 1025.8 1026.0 0.0
23/08:30pm 3.4 1.7 1.9 90 0.6 CALM 0 0 0 0 1025.8 1026.0 0.0
23/08:00pm 4.3 2.7 2.5 88 0.7 CALM 0 0 0 0 1025.4 1025.6 0.0
23/07:30pm 5.1 3.6 3.1 87 0.8 CALM 0 0 0 0 1025.1 1025.3 0.0
23/07:00pm 6.6 5.3 3.9 83 1.2 CALM 0 0 0 0 1024.8 1025.0 0.0
23/06:30pm 8.1 6.6 3.2 71 2.1 CALM 0 0 0 0 1024.5 1024.7 0.0
23/06:00pm 10.2 8.3 3.0 61 3.1 N 2 4 1 2 1024.2 1024.4 0.0
23/05:30pm 11.9 9.6 2.9 54 4.0 ENE 4 9 2 5 1023.9 1024.1 0.0
23/05:00pm 13.3 10.6 2.5 48 4.8 E 6 13 3 7 1023.5 1023.7 0.0
23/04:30pm 12.4 10.2 3.6 55 4.0 ESE 4 7 2 4 1023.4 1023.6 0.0
23/04:00pm 13.9 11.5 4.2 52 4.5 SE 6 13 3 7 1023.1 1023.3 0.0
23/03:30pm 13.4 10.2 2.9 49 4.7 E 9 15 5 8 1023.2 1023.4 0.0
23/03:00pm 14.1 11.8 2.7 46 5.1 NE 4 6 2 3 1023.2 1023.4 0.0
23/02:30pm 14.2 11.7 3.7 49 4.8 SE 6 13 3 7 1023.2 1023.4 0.0
23/02:00pm 13.9 10.4 3.4 49 4.7 ENE 11 17 6 9 1023.2 1023.4 0.0
23/01:30pm 12.6 9.4 3.3 53 4.2 SE 9 15 5 8 1023.4 1023.6 0.0
23/01:00pm 13.4 10.9 4.6 55 4.1 ESE 7 15 4 8 1023.6 1023.8 0.0
23/12:30pm 13.4 10.1 4.6 55 4.1 SE 11 22 6 12 1024.0 1024.2 0.0
23/12:00pm 12.9 8.8 4.1 55 4.0 SE 15 26 8 14 1024.3 1024.5 0.0
23/11:30am 12.3 8.5 4.0 57 3.8 SE 13 19 7 10 1024.7 1024.9 0.0
23/11:00am 12.7 10.9 7.0 68 2.8 SSE 6 15 3 8 1024.9 1025.1 0.0
23/10:30am 10.2 8.4 5.4 72 2.2 SSE 4 9 2 5 1025.2 1025.4 0.0
23/10:00am 9.1 7.3 5.5 78 1.6 SSE 4 6 2 3 1025.5 1025.7 0.0
23/09:30am 7.8 6.9 6.1 89 0.8 CALM 0 0 0 0 1025.7 1025.9 0.0
23/09:00am 5.0 3.8 4.4 96 0.3 CALM 0 0 0 0 1025.8 1026.0 0.4
23/08:30am 3.9 2.5 3.6 98 0.1 CALM 0 0 0 0 1025.6 1025.8 0.4
23/08:00am 2.1 0.4 1.8 98 0.1 CALM 0 0 0 0 1025.5 1025.7 0.4
23/07:30am 0.6 -1.4 0.2 97 0.1 CALM 0 0 0 0 1025.2 1025.4 0.4
23/07:00am 0.3 -1.7 -0.1 97 0.1 CALM 0 0 0 0 1025.1 1025.3 0.4
23/06:30am 0.6 -1.4 0.2 97 0.1 CALM 0 0 0 0 1024.8 1025.0 0.4
23/06:00am 0.8 -1.1 0.4 97 0.1 CALM 0 0 0 0 1024.6 1024.8 0.4
23/05:30am 1.2 -0.7 0.8 97 0.2 CALM 0 0 0 0 1024.4 1024.6 0.4
23/05:00am 1.6 -0.2 1.2 97 0.2 CALM 0 0 0 0 1024.2 1024.4 0.4
23/04:30am 2.1 0.4 1.7 97 0.2 CALM 0 0 0 0 1024.1 1024.3 0.4
23/04:00am 2.4 0.7 2.0 97 0.2 CALM 0 0 0 0 1024.0 1024.2 0.4
23/03:30am 2.5 0.8 2.1 97 0.2 CALM 0 0 0 0 1024.0 1024.2 0.4
23/03:00am 2.6 1.0 2.2 97 0.2 CALM 0 0 0 0 1023.9 1024.1 0.4
23/02:30am 2.3 0.6 1.7 96 0.2 CALM 0 0 0 0 1024.0 1024.2 0.4
23/02:00am 2.3 0.6 1.7 96 0.2 CALM 0 0 0 0 1024.0 1024.2 0.4
23/01:30am 2.6 0.9 1.9 95 0.3 CALM 0 0 0 0 1024.1 1024.3 0.4
23/01:00am 3.2 1.6 2.5 95 0.3 CALM 0 0 0 0 1024.0 1024.2 0.4
23/12:30am 4.2 2.8 3.5 95 0.3 CALM 0 0 0 0 1024.1 1024.3 0.4
23/12:00am 4.6 3.2 3.7 94 0.4 CALM 0 0 0 0 1024.0 1024.2 0.4
 
Date/Time
WST
Temp
°C
App
Temp
°C
Dew
Point
°C
Rel
Hum
%
Delta-T
°C
Wind Press
QNH
hPa
Press
MSL
hPa
Rain since
9am
mm
Dir  Spd
km/h
Gust
km/h
Spd
kts
Gust
kts
22/11:30pm 5.2 3.9 4.3 94 0.4 CALM 0 0 0 0 1024.1 1024.3 0.4
22/11:00pm 5.2 3.9 4.2 93 0.4 CALM 0 0 0 0 1024.3 1024.5 0.4
22/10:30pm 5.8 4.6 4.8 93 0.4 CALM 0 2 0 1 1024.3 1024.5 0.4
22/10:00pm 6.3 4.9 5.3 93 0.4 NW 2 4 1 2 1024.5 1024.7 0.4
22/09:30pm 6.4 4.9 5.0 91 0.6 WNW 2 4 1 2 1024.4 1024.6 0.4
22/09:00pm 7.3 6.3 5.6 89 0.8 CALM 0 0 0 0 1024.3 1024.5 0.4
22/08:30pm 8.1 7.1 5.7 85 1.1 CALM 0 0 0 0 1024.1 1024.3 0.4
22/08:00pm 9.2 7.4 5.2 76 1.8 SSW 4 6 2 3 1023.8 1024.0 0.4
22/07:30pm 9.4 7.2 5.2 75 1.9 SSW 6 7 3 4 1023.6 1023.8 0.4
22/07:00pm 9.4 8.6 6.7 83 1.3 CALM 0 4 0 2 1023.3 1023.5 0.4
22/06:30pm 9.4 8.6 6.5 82 1.4 CALM 0 0 0 0 1023.0 1023.2 0.4
22/06:00pm 10.0 7.9 5.6 74 2.0 S 6 7 3 4 1022.8 1023.0 0.4
22/05:30pm 10.7 8.0 5.5 70 2.4 SSE 9 15 5 8 1022.5 1022.6 0.4
22/05:00pm 11.3 9.2 5.8 69 2.6 S 6 9 3 5 1022.3 1022.4 0.4
22/04:30pm 10.8 7.7 5.6 70 2.4 SSE 11 19 6 10 1022.1 1022.2 0.4
22/04:00pm 11.4 8.5 6.7 73 2.2 SSE 11 17 6 9 1021.9 1022.0 0.4
22/03:30pm 10.1 6.9 6.8 80 1.6 SSE 13 20 7 11 1022.0 1022.1 0.4
22/03:00pm 11.6 7.4 5.5 66 2.8 S 17 28 9 15 1021.8 1021.9 0.0
22/02:30pm 10.0 6.2 5.8 75 1.9 S 15 28 8 15 1021.9 1022.0 0.0

Other Formats:

Comma delimited format used in spreadsheet applications
http://www.bom.gov.au/fwo/IDW60801/IDW60801.95632.axf

JavaScript Object Notation format (JSON) in row-major order
http://www.bom.gov.au/fwo/IDW60801/IDW60801.95632.json